»·PEaware :: N654SW KPHX-KTUS

N654SW :: KPHX-KTUS

FLIGHT INFORMATION

Flight Status: Arrived
Operator: Privately registered:
United States
More flights under this callsign
Pilot: Sergei F. (8485)
Aircraft: BOEING 737-300
(B733)
More flights by this aircraft type
Origin: KPHX Phoenix Sky Harbor Intl
United States
Destination: KTUS Tucson Intl
United States
More flights between these airports :: More routes between these airports
Route: +STRRM1 TUS
File this flight plan on PilotEdge
Remarks:
Altitude:
(Current/Filed)
9,000ft
Speed:
(Current/Filed)
300kts
Departed: 19-Sep-20 07:01 PM
Arrived: 19-Sep-20 07:32 PM
Distance/Time
Traveled:
96nm/0:31
Distance/Time
To Go:
Arrived

Flight Plot

Page will automatically refresh every two minutes.

Flight plan parsing failed; only flown route is shown


Map Options




Map Legend


Flown Route
Filed Route
Departure Airport
Arrival Airport
Navaid (VOR, NDB)
Fix

Horizontal Profiles

Position Reports

Time Latitude Longitude Heading Altitude Ground
Speed
19-Sep-20 18:20 33.433428 -111.996540 0 1126ft 0kts
19-Sep-20 18:21 33.433428 -111.996540 0 1126ft 0kts
19-Sep-20 18:21 33.433428 -111.996540 0 1126ft 0kts
19-Sep-20 18:22 33.433428 -111.996540 0 1126ft 0kts
19-Sep-20 18:23 33.433428 -111.996540 0 1126ft 0kts
19-Sep-20 18:24 33.433428 -111.996540 0 1126ft 0kts
19-Sep-20 18:25 33.433428 -111.996540 0 1126ft 0kts
19-Sep-20 18:26 33.433428 -111.996540 0 1126ft 0kts
19-Sep-20 18:27 33.433428 -111.996540 0 1126ft 0kts
19-Sep-20 18:28 33.433428 -111.996540 0 1126ft 0kts
19-Sep-20 18:29 33.433428 -111.996540 0 1126ft 0kts
19-Sep-20 18:30 33.433428 -111.996540 0 1126ft 0kts
19-Sep-20 18:31 33.433428 -111.996540 0 1126ft 0kts
19-Sep-20 18:32 33.433428 -111.996540 0 1126ft 0kts
19-Sep-20 18:33 33.433428 -111.996540 0 1126ft 0kts
19-Sep-20 18:34 33.433428 -111.996540 0 1126ft 0kts
19-Sep-20 18:35 33.433428 -111.996540 0 1126ft 0kts
19-Sep-20 18:36 33.433428 -111.996540 0 1126ft 0kts
19-Sep-20 18:37 33.433428 -111.996540 0 1126ft 0kts
19-Sep-20 18:38 33.433428 -111.996540 0 1126ft 0kts
19-Sep-20 18:39 33.433428 -111.996540 0 1126ft 0kts
19-Sep-20 18:40 33.433428 -111.996540 0 1126ft 0kts
19-Sep-20 18:41 33.433427 -111.996540 360 1126ft 0kts
19-Sep-20 18:42 33.433427 -111.996540 360 1126ft 0kts
19-Sep-20 18:43 33.433171 -111.996540 0 1126ft 1kts
19-Sep-20 18:44 33.432847 -111.996152 265 1126ft 1kts
19-Sep-20 18:45 33.432849 -111.996110 269 1126ft 0kts
19-Sep-20 18:46 33.432849 -111.996110 269 1126ft 0kts
19-Sep-20 18:47 33.432849 -111.996110 269 1126ft 0kts
19-Sep-20 18:48 33.432849 -111.996110 269 1126ft 0kts
19-Sep-20 18:49 33.432849 -111.996110 269 1126ft 0kts
19-Sep-20 18:50 33.432858 -111.997164 270 1125ft 9kts
19-Sep-20 18:51 33.432860 -112.001493 269 1125ft 16kts
19-Sep-20 18:52 33.432865 -112.006040 270 1125ft 11kts
19-Sep-20 18:53 33.432872 -112.010538 270 1125ft 11kts
19-Sep-20 18:54 33.432876 -112.015269 270 1121ft 13kts
19-Sep-20 18:55 33.432885 -112.020183 270 1119ft 15kts
19-Sep-20 18:56 33.432891 -112.025366 269 1114ft 15kts
19-Sep-20 18:57 33.432140 -112.026933 182 1113ft 2kts
19-Sep-20 18:58 33.432077 -112.026937 182 1112ft 0kts
19-Sep-20 18:59 33.431122 -112.026924 152 1112ft 3kts
19-Sep-20 19:00 33.431060 -112.025230 90 1114ft 51kts
19-Sep-20 19:01 33.432041 -111.977011 88 3000ft 165kts
19-Sep-20 19:02 33.434769 -111.912866 88 4647ft 224kts
19-Sep-20 19:03 33.408745 -111.848835 141 7163ft 249kts
19-Sep-20 19:04 33.345663 -111.804603 186 9417ft 288kts
19-Sep-20 19:05 33.267169 -111.824804 191 11187ft 297kts
19-Sep-20 19:06 33.179568 -111.848052 191 11012ft 331kts
19-Sep-20 19:07 33.092542 -111.882638 208 10998ft 336kts
19-Sep-20 19:08 33.016552 -111.949015 218 11055ft 335kts
19-Sep-20 19:09 32.932880 -111.942633 148 11037ft 333kts
19-Sep-20 19:10 32.859856 -111.876975 131 11037ft 334kts
19-Sep-20 19:11 32.797016 -111.795973 132 11044ft 333kts
19-Sep-20 19:12 32.733525 -111.715191 132 10878ft 332kts
19-Sep-20 19:13 32.670155 -111.634849 132 10892ft 333kts
19-Sep-20 19:14 32.606746 -111.554594 132 10900ft 332kts
19-Sep-20 19:15 32.543589 -111.474933 132 10918ft 331kts
19-Sep-20 19:16 32.480668 -111.395702 132 10925ft 331kts
19-Sep-20 19:17 32.417289 -111.315885 133 10368ft 330kts
19-Sep-20 19:18 32.355395 -111.238171 133 8960ft 310kts
19-Sep-20 19:19 32.301197 -111.165571 129 7435ft 280kts
19-Sep-20 19:20 32.251790 -111.099365 133 6021ft 257kts
19-Sep-20 19:21 32.207284 -111.046500 134 5958ft 206kts
19-Sep-20 19:22 32.169493 -111.002101 134 4898ft 191kts
19-Sep-20 19:23 32.130647 -110.955636 132 3928ft 193kts
19-Sep-20 19:24 32.091924 -110.910534 134 3984ft 195kts
19-Sep-20 19:25 32.053056 -110.922470 276 4116ft 195kts
19-Sep-20 19:26 32.085051 -110.972527 312 4095ft 192kts
19-Sep-20 19:27 32.119872 -111.017728 313 4073ft 168kts
19-Sep-20 19:28 32.155765 -111.010928 63 3686ft 156kts
19-Sep-20 19:29 32.141857 -110.970004 133 3095ft 144kts
19-Sep-20 19:30 32.114917 -110.937989 135 2607ft 97kts
19-Sep-20 19:31 32.107950 -110.929804 132 2630ft 9kts
19-Sep-20 19:32 32.108340 -110.928555 45 2634ft 0kts
19-Sep-20 19:33 32.108517 -110.928349 39 2635ft 3kts
19-Sep-20 19:34 32.110901 -110.930755 315 2626ft 13kts
19-Sep-20 19:35 32.113947 -110.934331 315 2616ft 16kts
19-Sep-20 19:36 32.116766 -110.937637 315 2607ft 10kts
19-Sep-20 19:37 32.118203 -110.937630 29 2604ft 4kts
19-Sep-20 19:38 32.118638 -110.937214 40 2603ft 0kts
19-Sep-20 19:39 32.118638 -110.937214 40 2603ft 0kts
19-Sep-20 19:40 32.118638 -110.937214 40 2603ft 0kts
19-Sep-20 19:41 32.118638 -110.937214 40 2603ft 0kts

Navigation Log

Ident Type
Flight plan parsing failed, navigation log unavailable